Toledo, Washington
Current Conditions -  °F | °C
As of 6:55 PM on Saturday 25 Oct 2014 (Local Time) from KCLS Reporting Station
Light Rain Light Rain  
Wind Chill: 54°   Ceiling: NA
Heat Index: 54°   Visibility: 9mi
Dew Point: 52°   Wind: 12mph
Humidity: 94%   Direction: 230°SW
Pressure: 29.5"   Gusts: 22mph
Location:  46.44°N, 122.85°W
Report Text: KCLS 260155Z AUTO 23010G19KT 9SM -RA 12/11 A2950 RMK AO2
Loading
Personal Weather Stations






























Interactive Weather Map
Tropical Storm Tracking
New forecast layout! Learn more

10-Day Weather Forecast

Advertisements
Track Severe Weather on mobile